Time;durP1;ratioP1;P1;durP2;ratioP2;P2;SDS_P1;SDS_P2;PMS_P1;PMS_P2;Temp;Humidity;BMP_temperature;BMP_pressure;BME280_temperature;BME280_humidity;BME280_pressure;Samples;Min_cycle;Max_cycle;Signal;HPM_P1;HPM_P2
2023/08/05 00:01:42;;;;;;;3.03;1.50;;;14.80;99.90;;;;;;5067885;28;20536;-81
2023/08/05 00:04:07;;;;;;;7.15;1.90;;;14.80;99.90;;;;;;5068025;28;20020;-82
2023/08/05 00:06:33;;;;;;;4.88;2.22;;;14.80;99.90;;;;;;5059210;28;20410;-82
2023/08/05 00:08:58;;;;;;;2.33;1.80;;;14.90;99.90;;;;;;5068474;28;20020;-81
2023/08/05 00:11:24;;;;;;;5.07;2.00;;;14.90;99.90;;;;;;5063951;28;20078;-82
2023/08/05 00:13:49;;;;;;;5.35;2.03;;;15.00;99.90;;;;;;5064771;28;20021;-82
2023/08/05 00:16:15;;;;;;;3.47;1.98;;;15.00;99.90;;;;;;5061731;28;20088;-82
2023/08/05 00:18:41;;;;;;;10.57;2.05;;;15.00;99.90;;;;;;5068445;28;20032;-82
2023/08/05 00:21:06;;;;;;;4.25;2.55;;;15.10;99.90;;;;;;5062662;28;20058;-82
2023/08/05 00:23:32;;;;;;;11.32;2.60;;;15.20;99.90;;;;;;5065775;28;20060;-82
2023/08/05 00:25:57;;;;;;;4.82;2.13;;;15.20;99.90;;;;;;5074802;28;20020;-82
2023/08/05 00:28:23;;;;;;;6.18;1.88;;;15.20;99.90;;;;;;5046562;28;20055;-81
2023/08/05 00:30:49;;;;;;;5.88;2.00;;;15.30;99.90;;;;;;5067121;28;20055;-81
2023/08/05 00:33:14;;;;;;;6.00;2.63;;;15.30;99.90;;;;;;5073742;28;20120;-82
2023/08/05 00:35:40;;;;;;;14.38;3.65;;;15.40;99.90;;;;;;5067124;28;20051;-82
2023/08/05 00:38:05;;;;;;;5.47;2.40;;;15.40;99.90;;;;;;5066793;28;20029;-82
2023/08/05 00:40:31;;;;;;;8.05;3.30;;;15.50;99.90;;;;;;5056834;28;20131;-81
2023/08/05 00:42:57;;;;;;;3.75;2.33;;;15.50;99.90;;;;;;5060585;28;20021;-82
2023/08/05 00:45:23;;;;;;;6.10;3.00;;;15.50;99.90;;;;;;5062961;28;20055;-82
2023/08/05 00:47:48;;;;;;;7.47;3.33;;;15.60;99.90;;;;;;5065568;28;20028;-82
2023/08/05 00:50:14;;;;;;;9.70;2.70;;;15.60;99.90;;;;;;5066097;28;20525;-81
2023/08/05 00:52:42;;;;;;;3.65;2.22;;;15.60;99.90;;;;;;5066615;28;20106;-82
2023/08/05 00:55:08;;;;;;;5.25;2.53;;;15.70;99.90;;;;;;5059577;28;20482;-81
2023/08/05 00:57:34;;;;;;;5.10;2.40;;;15.70;99.90;;;;;;5059253;28;20034;-82
2023/08/05 01:00:00;;;;;;;6.35;2.30;;;15.70;99.90;;;;;;5065119;28;20040;-82
2023/08/05 01:02:26;;;;;;;5.05;2.40;;;15.70;99.90;;;;;;5063565;28;20293;-82
2023/08/05 01:04:52;;;;;;;5.53;2.75;;;15.70;99.90;;;;;;5059627;28;20585;-82
2023/08/05 01:07:19;;;;;;;5.03;2.17;;;15.70;99.90;;;;;;5061607;28;20041;-81
2023/08/05 01:09:45;;;;;;;7.53;2.58;;;15.60;99.90;;;;;;5063703;28;20024;-82
2023/08/05 01:12:10;;;;;;;7.85;2.67;;;15.60;99.90;;;;;;5060969;28;20116;-82
2023/08/05 01:14:36;;;;;;;8.13;2.63;;;15.60;99.90;;;;;;5064190;28;20024;-82
2023/08/05 01:17:02;;;;;;;8.20;2.95;;;15.60;99.90;;;;;;5067817;28;20044;-82
2023/08/05 01:19:29;;;;;;;8.02;2.78;;;15.60;99.90;;;;;;5067269;28;20032;-82
2023/08/05 01:21:59;;;;;;;5.80;2.35;;;15.60;99.90;;;;;;5061962;28;20029;-81
2023/08/05 01:24:30;;;;;;;7.32;2.58;;;15.60;99.90;;;;;;5065165;28;20126;-82
2023/08/05 01:26:57;;;;;;;6.07;2.22;;;15.50;99.90;;;;;;5061441;28;20055;-82
2023/08/05 01:29:23;;;;;;;7.03;2.55;;;15.50;99.90;;;;;;5065279;28;20093;-82
2023/08/05 01:31:51;;;;;;;7.55;3.42;;;15.50;99.90;;;;;;5057912;28;20428;-82
2023/08/05 01:34:16;;;;;;;8.18;3.58;;;15.50;99.90;;;;;;5066691;28;20107;-82
2023/08/05 01:36:42;;;;;;;8.38;2.53;;;15.50;99.90;;;;;;5055057;28;20113;-82
2023/08/05 01:39:07;;;;;;;10.20;3.53;;;15.50;99.90;;;;;;5070465;28;20036;-82
2023/08/05 01:41:33;;;;;;;9.63;3.08;;;15.40;99.90;;;;;;5066732;28;20025;-82
2023/08/05 01:43:59;;;;;;;5.63;2.58;;;15.40;99.90;;;;;;5060485;28;20529;-82
2023/08/05 01:46:24;;;;;;;5.60;2.38;;;15.40;99.90;;;;;;5062596;28;20029;-82
2023/08/05 01:48:50;;;;;;;4.72;2.28;;;15.40;99.90;;;;;;5066323;28;20473;-82
2023/08/05 01:51:15;;;;;;;6.90;2.70;;;15.40;99.90;;;;;;5054146;28;20024;-82
2023/08/05 01:53:41;;;;;;;7.70;2.50;;;15.40;99.90;;;;;;5066223;28;20111;-82
2023/08/05 01:56:07;;;;;;;6.05;2.65;;;15.40;99.90;;;;;;5063965;28;20028;-82
2023/08/05 01:58:32;;;;;;;5.63;2.55;;;15.30;99.90;;;;;;5060235;28;20033;-82
2023/08/05 02:00:58;;;;;;;5.88;2.90;;;15.30;99.90;;;;;;5058646;28;20052;-81
2023/08/05 02:03:23;;;;;;;9.57;2.70;;;15.20;99.90;;;;;;5065212;28;20066;-82
2023/08/05 02:05:49;;;;;;;4.43;2.72;;;15.20;99.90;;;;;;5059660;28;20021;-82
2023/08/05 02:08:15;;;;;;;9.48;3.20;;;15.20;99.90;;;;;;5062839;28;20036;-82
2023/08/05 02:10:44;;;;;;;10.25;3.20;;;15.10;99.90;;;;;;5064706;28;20028;-82
2023/08/05 02:13:10;;;;;;;7.90;3.95;;;15.10;99.90;;;;;;5061876;28;20028;-81
2023/08/05 02:15:35;;;;;;;8.60;3.53;;;15.10;99.90;;;;;;5057250;28;20217;-82
2023/08/05 02:18:02;;;;;;;6.22;3.17;;;15.10;99.90;;;;;;5061906;28;20042;-82
2023/08/05 02:20:27;;;;;;;6.00;3.45;;;15.00;99.90;;;;;;5058844;28;20044;-82
2023/08/05 02:22:53;;;;;;;11.30;3.65;;;15.00;99.90;;;;;;5039602;28;20040;-82
2023/08/05 02:25:19;;;;;;;7.60;3.28;;;15.00;99.90;;;;;;5066480;28;20024;-82
2023/08/05 02:27:44;;;;;;;10.68;3.13;;;15.00;99.90;;;;;;5057583;28;20028;-82
2023/08/05 02:30:10;;;;;;;12.15;4.05;;;15.00;99.90;;;;;;5056402;28;20048;-82
2023/08/05 02:32:35;;;;;;;7.13;3.83;;;15.00;99.90;;;;;;5065757;28;20032;-82
2023/08/05 02:35:01;;;;;;;8.45;3.90;;;15.00;99.90;;;;;;5061313;28;20146;-82
2023/08/05 02:37:27;;;;;;;12.05;5.75;;;15.00;99.90;;;;;;5069613;28;20024;-81
2023/08/05 02:39:52;;;;;;;8.77;4.00;;;15.00;99.90;;;;;;5061217;28;20274;-82
2023/08/05 02:42:18;;;;;;;15.07;5.70;;;15.10;99.90;;;;;;5056641;28;20033;-81
2023/08/05 02:44:44;;;;;;;10.13;4.35;;;15.10;99.90;;;;;;5064482;28;20029;-82
2023/08/05 02:47:09;;;;;;;10.40;4.10;;;15.10;99.90;;;;;;5065426;28;20382;-82
2023/08/05 02:49:35;;;;;;;16.15;4.90;;;15.20;99.90;;;;;;5063727;28;20068;-81
2023/08/05 02:52:01;;;;;;;8.88;4.57;;;15.20;99.90;;;;;;5041828;28;20050;-82
2023/08/05 02:54:27;;;;;;;11.35;4.55;;;15.20;99.90;;;;;;5058025;28;20091;-82
2023/08/05 02:56:52;;;;;;;8.70;4.07;;;15.20;99.90;;;;;;5048689;28;20402;-82
2023/08/05 02:59:18;;;;;;;11.48;3.97;;;15.20;99.90;;;;;;5061708;28;20031;-82
2023/08/05 03:01:44;;;;;;;6.32;4.07;;;15.20;99.90;;;;;;5070530;28;20016;-81
2023/08/05 03:04:09;;;;;;;6.97;3.80;;;15.20;99.90;;;;;;5061429;28;20029;-82
2023/08/05 03:06:35;;;;;;;8.88;4.93;;;15.20;99.90;;;;;;5063147;28;20029;-81
2023/08/05 03:09:01;;;;;;;8.00;3.70;;;15.20;99.90;;;;;;5062192;28;20063;-82
2023/08/05 03:11:30;;;;;;;12.90;5.30;;;15.20;99.90;;;;;;5064375;28;20028;-82
2023/08/05 03:13:56;;;;;;;10.35;4.78;;;15.20;99.90;;;;;;5060286;28;20017;-81
2023/08/05 03:16:24;;;;;;;7.15;4.10;;;15.20;99.90;;;;;;5065617;28;20090;-82
2023/08/05 03:18:50;;;;;;;10.07;5.22;;;15.20;99.90;;;;;;5056840;28;20068;-82
2023/08/05 03:21:15;;;;;;;8.70;4.32;;;15.20;99.90;;;;;;5063964;28;20072;-82
2023/08/05 03:23:41;;;;;;;9.48;3.97;;;15.20;99.90;;;;;;5065421;28;20088;-81
2023/08/05 03:26:07;;;;;;;11.70;5.05;;;15.20;99.90;;;;;;5066726;28;20048;-82
2023/08/05 03:28:32;;;;;;;12.07;4.22;;;15.20;99.90;;;;;;5068485;28;20052;-81
2023/08/05 03:30:58;;;;;;;11.25;4.15;;;15.20;99.90;;;;;;5066112;28;20493;-82
2023/08/05 03:33:24;;;;;;;8.85;4.65;;;15.20;99.90;;;;;;5066164;28;20032;-82
2023/08/05 03:35:49;;;;;;;7.18;3.97;;;15.20;99.90;;;;;;5068961;28;20078;-81
2023/08/05 03:38:15;;;;;;;11.73;4.80;;;15.20;99.90;;;;;;5062203;28;20513;-82
2023/08/05 03:40:41;;;;;;;11.52;4.20;;;15.20;99.90;;;;;;5064258;28;20044;-82
2023/08/05 03:43:07;;;;;;;12.23;4.95;;;15.20;99.90;;;;;;5068008;28;20068;-82
2023/08/05 03:45:32;;;;;;;11.75;4.82;;;15.20;99.90;;;;;;5060772;28;20032;-81
2023/08/05 03:47:58;;;;;;;12.18;4.93;;;15.20;99.90;;;;;;5067537;28;20078;-82
2023/08/05 03:50:24;;;;;;;7.60;4.70;;;15.20;99.90;;;;;;5068690;28;20045;-82
2023/08/05 03:52:49;;;;;;;18.08;5.72;;;15.20;99.90;;;;;;5069820;28;20490;-81
2023/08/05 03:55:16;;;;;;;17.90;6.38;;;15.20;99.90;;;;;;5068397;28;20025;-82
2023/08/05 03:57:42;;;;;;;11.93;4.75;;;15.20;99.90;;;;;;5060735;28;20052;-81
2023/08/05 04:00:11;;;;;;;12.13;5.55;;;15.20;99.90;;;;;;5069883;28;20478;-82
2023/08/05 04:02:37;;;;;;;10.00;5.53;;;15.20;99.90;;;;;;5047191;28;20391;-82
2023/08/05 04:05:04;;;;;;;17.40;5.57;;;15.20;99.90;;;;;;5066936;28;20017;-81
2023/08/05 04:07:31;;;;;;;16.85;6.13;;;15.20;99.90;;;;;;5068463;28;20033;-82
2023/08/05 04:09:57;;;;;;;14.05;6.05;;;15.20;99.90;;;;;;5069804;28;20060;-81
2023/08/05 04:12:23;;;;;;;15.90;5.50;;;15.20;99.90;;;;;;5065473;28;20048;-82
2023/08/05 04:14:50;;;;;;;10.45;5.75;;;15.20;99.90;;;;;;5055151;28;20021;-82
2023/08/05 04:17:16;;;;;;;12.27;6.38;;;15.20;99.90;;;;;;5068889;28;20047;-82
2023/08/05 04:19:43;;;;;;;12.60;6.13;;;15.20;99.90;;;;;;5067180;28;20131;-81
2023/08/05 04:22:09;;;;;;;13.50;5.70;;;15.20;99.90;;;;;;5059601;28;20502;-82
2023/08/05 04:24:35;;;;;;;10.82;5.07;;;15.10;99.90;;;;;;5064250;28;20031;-81
2023/08/05 04:27:01;;;;;;;12.40;5.32;;;15.20;99.90;;;;;;5061808;28;20029;-81
2023/08/05 04:29:27;;;;;;;14.82;5.90;;;15.10;99.90;;;;;;5057291;28;20048;-82
2023/08/05 04:31:53;;;;;;;16.70;5.15;;;15.10;99.90;;;;;;5067708;28;20529;-82
2023/08/05 04:34:19;;;;;;;10.50;4.78;;;15.10;99.90;;;;;;5068506;28;20462;-82
2023/08/05 04:36:51;;;;;;;11.90;4.60;;;15.10;99.90;;;;;;5067975;28;20105;-82
2023/08/05 04:39:18;;;;;;;15.85;5.50;;;15.10;99.90;;;;;;5062730;28;20079;-82
2023/08/05 04:41:45;;;;;;;9.48;4.78;;;15.10;99.90;;;;;;5058822;28;20025;-81
2023/08/05 04:44:11;;;;;;;9.52;3.95;;;15.10;99.90;;;;;;5063387;28;20110;-81
2023/08/05 04:46:37;;;;;;;11.63;4.70;;;15.10;99.90;;;;;;5067027;28;20028;-82
2023/08/05 04:49:08;;;;;;;9.25;4.75;;;15.10;99.90;;;;;;5065067;28;20035;-82
2023/08/05 04:51:37;;;;;;;11.02;4.60;;;15.20;99.90;;;;;;5047773;28;20044;-82
2023/08/05 04:54:04;;;;;;;18.05;5.68;;;15.20;99.90;;;;;;5067224;28;20024;-82
2023/08/05 04:56:29;;;;;;;10.48;4.57;;;15.20;99.90;;;;;;5068524;28;20024;-82
2023/08/05 04:58:55;;;;;;;11.30;4.40;;;15.10;99.90;;;;;;5060496;28;20604;-82
2023/08/05 05:01:21;;;;;;;10.50;5.20;;;15.20;99.90;;;;;;5049128;28;20063;-82
2023/08/05 05:03:49;;;;;;;6.80;4.57;;;15.20;99.90;;;;;;5066543;28;20024;-81
2023/08/05 05:06:15;;;;;;;12.38;4.78;;;15.20;99.90;;;;;;5051874;28;20029;-82
2023/08/05 05:08:40;;;;;;;10.50;3.72;;;15.20;99.90;;;;;;5067517;28;20078;-81
2023/08/05 05:11:07;;;;;;;6.90;3.72;;;15.20;99.90;;;;;;5065764;28;20245;-82
2023/08/05 05:13:33;;;;;;;10.55;4.15;;;15.20;99.90;;;;;;5066187;28;20025;-82
2023/08/05 05:16:02;;;;;;;10.63;5.13;;;15.20;99.90;;;;;;5066430;28;20018;-82
2023/08/05 05:18:27;;;;;;;14.23;4.15;;;15.30;99.90;;;;;;5060832;28;20021;-82
2023/08/05 05:20:54;;;;;;;8.20;4.07;;;15.30;99.90;;;;;;5065345;28;20033;-82
2023/08/05 05:23:20;;;;;;;11.65;4.35;;;15.30;99.90;;;;;;5063852;28;20496;-82
2023/08/05 05:25:47;;;;;;;14.35;4.10;;;15.30;99.90;;;;;;5062369;28;20474;-82
2023/08/05 05:28:12;;;;;;;15.77;4.97;;;15.40;99.90;;;;;;5063269;28;20024;-81
2023/08/05 05:30:38;;;;;;;9.40;4.13;;;15.40;99.90;;;;;;5060636;28;20413;-82
2023/08/05 05:33:04;;;;;;;16.88;5.22;;;15.40;99.90;;;;;;5064538;28;20042;-82
2023/08/05 05:35:29;;;;;;;9.55;4.75;;;15.40;99.90;;;;;;5065821;28;20530;-82
2023/08/05 05:37:55;;;;;;;11.38;4.63;;;15.40;99.90;;;;;;5066171;28;20025;-81
2023/08/05 05:40:21;;;;;;;10.00;3.53;;;15.40;99.90;;;;;;5066178;28;20288;-81
2023/08/05 05:42:49;;;;;;;10.23;4.13;;;15.40;99.90;;;;;;5062785;28;20107;-82
2023/08/05 05:45:15;;;;;;;9.57;3.95;;;15.50;99.90;;;;;;5068471;28;20032;-82
2023/08/05 05:47:40;;;;;;;7.78;4.38;;;15.50;99.90;;;;;;5060386;28;20032;-82
2023/08/05 05:50:07;;;;;;;21.33;5.32;;;15.60;99.90;;;;;;5056258;28;20067;-82
2023/08/05 05:52:34;;;;;;;9.90;5.10;;;15.60;99.90;;;;;;5070780;28;20036;-82
2023/08/05 05:54:59;;;;;;;15.68;4.00;;;15.60;99.90;;;;;;5062160;28;20024;-82
2023/08/05 05:57:25;;;;;;;15.38;3.90;;;15.70;99.90;;;;;;5063255;28;20120;-82
2023/08/05 05:59:50;;;;;;;12.50;3.70;;;15.70;99.90;;;;;;5063876;28;20343;-82
2023/08/05 06:02:16;;;;;;;11.60;3.13;;;15.70;99.90;;;;;;5061307;28;20021;-82
2023/08/05 06:04:44;;;;;;;8.32;3.10;;;15.70;99.90;;;;;;5059946;28;20032;-81
2023/08/05 06:07:09;;;;;;;8.95;3.40;;;15.80;99.90;;;;;;5060170;28;20167;-82
2023/08/05 06:09:35;;;;;;;8.80;3.47;;;15.80;99.90;;;;;;5064063;28;20466;-82
2023/08/05 06:12:01;;;;;;;11.27;3.50;;;15.80;99.90;;;;;;5042844;28;20021;-82
2023/08/05 06:14:29;;;;;;;7.72;3.50;;;15.80;99.90;;;;;;5063631;28;20031;-82
2023/08/05 06:16:55;;;;;;;9.40;3.05;;;15.80;99.90;;;;;;5057533;28;20029;-82
2023/08/05 06:19:20;;;;;;;13.65;4.15;;;15.70;99.90;;;;;;5063276;28;20025;-81
2023/08/05 06:21:47;;;;;;;10.18;3.42;;;15.80;99.90;;;;;;5053865;28;20082;-82
2023/08/05 06:24:12;;;;;;;8.05;3.20;;;15.80;99.90;;;;;;5052457;28;20569;-81
2023/08/05 06:26:38;;;;;;;7.32;3.38;;;15.80;99.90;;;;;;5057398;28;20033;-82
2023/08/05 06:29:04;;;;;;;9.77;3.50;;;15.80;99.90;;;;;;5064057;28;20028;-82
2023/08/05 06:31:30;;;;;;;15.18;4.10;;;15.90;99.90;;;;;;5067272;28;20107;-82
2023/08/05 06:33:56;;;;;;;11.43;4.47;;;15.90;99.90;;;;;;5066025;28;20028;-82
2023/08/05 06:36:22;;;;;;;9.40;3.45;;;15.90;99.90;;;;;;5060717;28;20040;-82
2023/08/05 06:38:48;;;;;;;6.18;2.88;;;15.90;99.90;;;;;;5065552;28;20541;-82
2023/08/05 06:41:13;;;;;;;9.35;4.05;;;15.90;99.90;;;;;;5061176;28;20399;-81
2023/08/05 06:43:39;;;;;;;7.20;3.30;;;15.90;99.90;;;;;;5063665;28;20058;-82
2023/08/05 06:46:05;;;;;;;14.88;4.72;;;16.00;99.90;;;;;;5052389;28;20470;-82
2023/08/05 06:48:32;;;;;;;10.60;3.53;;;16.00;99.90;;;;;;5058813;28;20028;-82
2023/08/05 06:50:58;;;;;;;9.85;3.33;;;16.10;99.90;;;;;;5078179;28;20028;-82
2023/08/05 06:53:24;;;;;;;16.48;4.32;;;16.20;99.90;;;;;;5058783;28;20062;-82
2023/08/05 06:56:00;;;;;;;7.97;3.42;;;16.10;99.90;;;;;;5064260;28;20493;-82
2023/08/05 06:58:25;;;;;;;7.03;3.00;;;16.10;99.90;;;;;;5044677;28;20040;-83
2023/08/05 07:00:52;;;;;;;8.45;3.10;;;16.20;99.90;;;;;;5063783;28;20631;-82
2023/08/05 07:03:18;;;;;;;8.25;2.92;;;16.20;99.90;;;;;;5064614;28;20016;-83
2023/08/05 07:05:43;;;;;;;7.15;2.53;;;16.20;99.90;;;;;;5055874;28;20020;-82
2023/08/05 07:08:09;;;;;;;30.92;4.70;;;16.20;99.90;;;;;;5064626;28;20033;-81
2023/08/05 07:10:34;;;;;;;7.80;3.15;;;16.30;99.90;;;;;;5067772;28;20469;-82
2023/08/05 07:13:05;;;;;;;10.93;3.53;;;16.30;99.90;;;;;;5056001;28;20016;-82
2023/08/05 07:15:34;;;;;;;9.63;3.42;;;16.30;99.90;;;;;;5062641;28;20031;-82
2023/08/05 07:18:00;;;;;;;13.18;3.65;;;16.40;99.90;;;;;;5065260;28;20077;-82
2023/08/05 07:20:26;;;;;;;7.93;3.30;;;16.30;99.90;;;;;;5060452;28;20115;-83
2023/08/05 07:22:51;;;;;;;9.27;3.20;;;16.30;99.90;;;;;;5068472;28;20512;-82
2023/08/05 07:25:20;;;;;;;8.00;3.33;;;16.30;99.90;;;;;;5065549;28;20469;-81
2023/08/05 07:27:45;;;;;;;11.15;3.47;;;16.20;99.90;;;;;;5069488;28;20048;-81
2023/08/05 07:30:11;;;;;;;8.55;3.25;;;16.30;99.90;;;;;;5070250;28;20366;-82
2023/08/05 07:32:40;;;;;;;8.55;3.10;;;16.40;99.90;;;;;;5069916;28;20047;-82
2023/08/05 07:35:07;;;;;;;4.47;2.58;;;16.40;99.90;;;;;;5045949;28;20074;-82
2023/08/05 07:37:34;;;;;;;9.40;3.55;;;16.40;99.90;;;;;;5066747;28;20017;-82
2023/08/05 07:40:00;;;;;;;10.45;3.00;;;16.50;99.90;;;;;;5067000;28;20047;-81
2023/08/05 07:42:27;;;;;;;9.07;3.33;;;16.60;99.90;;;;;;5068119;28;20382;-82
2023/08/05 07:44:53;;;;;;;6.65;3.05;;;16.80;99.90;;;;;;5071926;28;20044;-82
2023/08/05 07:47:19;;;;;;;8.90;3.17;;;16.80;99.90;;;;;;5067569;28;20028;-82
2023/08/05 07:49:45;;;;;;;15.45;3.30;;;16.80;99.90;;;;;;5062098;28;20035;-82
2023/08/05 07:52:10;;;;;;;9.07;3.22;;;16.80;99.90;;;;;;5059455;28;20351;-82
2023/08/05 07:54:36;;;;;;;4.78;2.55;;;16.80;99.90;;;;;;5071249;28;20016;-82
2023/08/05 07:57:02;;;;;;;5.90;2.70;;;16.90;99.90;;;;;;5065192;28;20028;-82
2023/08/05 07:59:28;;;;;;;6.10;2.35;;;16.90;99.90;;;;;;5062415;28;20526;-81
2023/08/05 08:01:55;;;;;;;6.28;3.08;;;17.00;99.90;;;;;;5068290;28;20020;-82
2023/08/05 08:04:20;;;;;;;4.57;2.05;;;17.00;99.90;;;;;;5067070;28;20020;-82
2023/08/05 08:06:47;;;;;;;6.22;3.05;;;16.90;99.90;;;;;;5075430;28;20356;-82
2023/08/05 08:09:13;;;;;;;4.22;2.33;;;16.90;99.90;;;;;;5068867;28;20025;-82
2023/08/05 08:11:40;;;;;;;3.90;2.13;;;16.90;99.90;;;;;;5067756;28;20029;-82
2023/08/05 08:14:05;;;;;;;4.63;2.25;;;16.90;99.90;;;;;;5066333;28;20028;-82
2023/08/05 08:16:32;;;;;;;7.03;2.13;;;17.00;99.90;;;;;;5064022;28;20129;-82
2023/08/05 08:18:58;;;;;;;3.67;2.15;;;17.00;99.90;;;;;;5063502;28;20066;-82
2023/08/05 08:21:23;;;;;;;9.88;3.35;;;17.00;99.90;;;;;;5064359;28;20063;-82
2023/08/05 08:23:49;;;;;;;4.18;2.70;;;17.00;99.90;;;;;;5064167;28;20071;-81
2023/08/05 08:26:14;;;;;;;6.40;2.38;;;17.00;99.90;;;;;;5066859;28;20043;-82
2023/08/05 08:28:40;;;;;;;8.75;2.63;;;17.00;99.90;;;;;;5066187;28;20485;-82
2023/08/05 08:31:07;;;;;;;8.85;3.05;;;17.10;99.90;;;;;;5068226;28;20100;-82
2023/08/05 08:33:32;;;;;;;6.95;2.63;;;17.10;99.90;;;;;;5064181;28;20470;-82
2023/08/05 08:35:58;;;;;;;6.78;3.58;;;17.10;99.90;;;;;;5066163;28;20056;-83
2023/08/05 08:38:23;;;;;;;9.55;4.10;;;17.20;99.90;;;;;;5067480;28;20016;-82
2023/08/05 08:40:52;;;;;;;12.13;4.10;;;17.20;99.90;;;;;;5078151;28;20071;-82
2023/08/05 08:43:19;;;;;;;8.23;3.28;;;17.20;99.90;;;;;;5069264;28;20024;-82
2023/08/05 08:45:48;;;;;;;14.02;3.30;;;17.30;99.90;;;;;;5066378;28;20029;-82
2023/08/05 08:48:15;;;;;;;8.23;3.13;;;17.30;99.90;;;;;;5067322;28;20025;-80
2023/08/05 08:50:42;;;;;;;11.90;3.17;;;17.20;99.90;;;;;;5067237;28;20302;-82
2023/08/05 08:53:09;;;;;;;8.18;2.90;;;17.20;99.90;;;;;;5067709;28;20032;-82
2023/08/05 08:55:36;;;;;;;5.55;2.53;;;17.30;99.90;;;;;;5063902;28;20028;-82
2023/08/05 08:58:03;;;;;;;7.93;2.47;;;17.30;99.90;;;;;;5064370;28;21345;-82
2023/08/05 09:00:30;;;;;;;10.80;2.70;;;17.30;99.90;;;;;;5050548;28;20032;-83
2023/08/05 09:02:57;;;;;;;5.13;2.72;;;17.30;99.90;;;;;;5068935;28;20058;-82
2023/08/05 09:05:23;;;;;;;6.90;2.97;;;17.40;99.90;;;;;;5062056;28;20019;-82
2023/08/05 09:07:50;;;;;;;6.47;2.47;;;17.50;99.90;;;;;;5067674;28;20020;-83
2023/08/05 09:10:16;;;;;;;11.23;3.00;;;17.70;99.90;;;;;;5066351;28;20028;-83
2023/08/05 09:12:42;;;;;;;8.48;2.65;;;17.70;99.90;;;;;;5065454;28;20564;-83
2023/08/05 09:15:08;;;;;;;6.55;2.85;;;17.70;99.90;;;;;;5067763;28;20028;-83
2023/08/05 09:17:38;;;;;;;8.05;2.80;;;17.70;99.90;;;;;;5065165;28;20354;-83
2023/08/05 09:20:16;;;;;;;6.72;2.33;;;17.70;99.90;;;;;;5066763;28;20033;-82
2023/08/05 09:22:54;;;;;;;8.18;2.80;;;17.60;99.90;;;;;;5064829;28;20412;-82
2023/08/05 09:25:20;;;;;;;5.15;1.98;;;17.60;99.90;;;;;;5063683;28;20036;-82
2023/08/05 09:27:53;;;;;;;4.68;2.83;;;17.60;99.90;;;;;;5066914;28;20020;-82
2023/08/05 09:30:21;;;;;;;7.55;2.50;;;17.60;99.90;;;;;;5063635;28;20024;-82
2023/08/05 09:32:47;;;;;;;3.70;2.03;;;17.70;99.90;;;;;;5066962;28;20034;-82
2023/08/05 09:35:14;;;;;;;6.43;2.17;;;17.60;99.90;;;;;;5052875;28;20020;-82
2023/08/05 09:37:44;;;;;;;4.53;2.05;;;17.70;99.90;;;;;;5066612;28;20025;-82
2023/08/05 09:40:21;;;;;;;4.75;1.85;;;17.70;99.90;;;;;;5058563;28;20041;-82
2023/08/05 09:42:50;;;;;;;2.63;2.13;;;17.60;99.90;;;;;;5064313;28;20369;-82
2023/08/05 09:45:17;;;;;;;2.90;2.00;;;17.70;99.90;;;;;;5061986;28;20023;-83
2023/08/05 09:47:43;;;;;;;3.83;1.67;;;17.70;99.90;;;;;;5067405;28;20414;-83
2023/08/05 09:50:13;;;;;;;7.88;2.35;;;17.70;99.90;;;;;;5064467;28;20031;-83
2023/08/05 09:52:43;;;;;;;3.28;2.10;;;17.70;99.90;;;;;;5066146;28;20060;-83
2023/08/05 09:55:17;;;;;;;4.85;2.20;;;17.70;99.90;;;;;;5065256;28;20024;-83
2023/08/05 09:57:43;;;;;;;5.60;2.63;;;17.70;99.90;;;;;;5065800;28;20024;-83
2023/08/05 10:00:12;;;;;;;5.93;2.03;;;17.70;99.90;;;;;;5064928;28;20505;-83
2023/08/05 10:02:43;;;;;;;7.03;2.70;;;17.70;99.90;;;;;;5066366;28;20040;-83
2023/08/05 10:05:10;;;;;;;5.43;2.50;;;17.80;99.90;;;;;;5058835;28;20409;-82
2023/08/05 10:07:37;;;;;;;2.63;1.73;;;17.80;99.90;;;;;;5064870;28;20028;-82
2023/08/05 10:10:07;;;;;;;7.80;2.30;;;17.80;99.90;;;;;;5066353;28;20044;-82
2023/08/05 10:12:57;;;;;;;3.50;1.83;;;17.80;99.90;;;;;;5066380;28;20539;-82
2023/08/05 10:15:29;;;;;;;2.90;1.95;;;17.80;99.90;;;;;;5064753;28;20038;-83
2023/08/05 10:17:55;;;;;;;4.15;1.77;;;17.80;99.90;;;;;;5059339;28;20052;-83
2023/08/05 10:20:21;;;;;;;8.55;2.10;;;17.80;99.90;;;;;;5065690;28;20127;-82
2023/08/05 10:23:03;;;;;;;4.88;2.03;;;17.90;99.90;;;;;;5062780;28;20025;-83
2023/08/05 10:25:40;;;;;;;4.13;2.33;;;17.80;99.90;;;;;;5066107;28;20052;-82
2023/08/05 10:28:11;;;;;;;6.03;1.95;;;17.80;99.90;;;;;;5060511;28;20012;-82
2023/08/05 10:30:43;;;;;;;6.88;2.13;;;17.90;99.90;;;;;;5062605;28;20019;-82
2023/08/05 10:33:09;;;;;;;10.45;2.78;;;17.90;99.90;;;;;;5066493;28;20027;-82
2023/08/05 10:35:41;;;;;;;6.05;2.50;;;17.90;99.90;;;;;;5060538;28;20040;-82
2023/08/05 10:38:17;;;;;;;3.25;1.90;;;17.90;99.90;;;;;;5063049;28;20031;-82
2023/08/05 10:40:52;;;;;;;5.25;2.42;;;17.90;99.90;;;;;;5065609;28;20111;-83
2023/08/05 10:43:30;;;;;;;4.05;2.05;;;17.90;99.90;;;;;;5066341;28;20031;-82
2023/08/05 10:45:57;;;;;;;6.10;2.22;;;17.90;99.90;;;;;;5063553;28;20037;-83
2023/08/05 10:48:47;;;;;;;3.97;2.22;;;18.00;99.90;;;;;;5066277;28;20032;-82
2023/08/05 10:51:20;;;;;;;3.80;2.38;;;18.10;99.90;;;;;;5060026;28;20052;-84
2023/08/05 10:53:54;;;;;;;5.05;2.10;;;18.20;99.90;;;;;;5066359;28;20021;-83
2023/08/05 10:56:32;;;;;;;3.33;1.60;;;18.30;99.90;;;;;;5066102;28;20489;-83
2023/08/05 10:59:01;;;;;;;8.23;2.35;;;18.40;99.90;;;;;;5065773;28;20150;-83
2023/08/05 11:01:53;;;;;;;8.43;2.35;;;18.50;99.90;;;;;;5064504;28;20294;-84
2023/08/05 11:04:26;;;;;;;7.88;2.80;;;18.60;99.90;;;;;;5064892;28;20154;-83
2023/08/05 11:06:53;;;;;;;9.18;2.45;;;18.60;99.90;;;;;;5063925;28;20024;-84
2023/08/05 11:09:19;;;;;;;11.80;3.22;;;18.70;99.90;;;;;;5061057;28;20468;-83
2023/08/05 11:11:48;;;;;;;5.88;2.40;;;18.80;99.90;;;;;;5066171;28;20044;-83
2023/08/05 11:14:15;;;;;;;6.78;2.30;;;18.80;99.90;;;;;;5064335;28;20052;-83
2023/08/05 11:16:45;;;;;;;5.22;2.35;;;18.90;99.90;;;;;;5064718;28;20056;-83
2023/08/05 11:19:11;;;;;;;4.32;2.20;;;18.90;99.90;;;;;;5063684;28;20020;-84
2023/08/05 11:21:43;;;;;;;4.22;2.00;;;18.90;99.90;;;;;;5066017;28;20111;-84
2023/08/05 11:24:18;;;;;;;4.35;2.17;;;18.90;99.90;;;;;;5067102;28;20025;-83
2023/08/05 11:26:44;;;;;;;;;;;18.90;99.90;;;;;;5066104;28;20032;-84
2023/08/05 11:29:10;;;;;;;;;;;18.90;99.90;;;;;;5065250;28;19926;-83
2023/08/05 11:31:36;;;;;;;4.93;2.40;;;19.00;99.90;;;;;;5065366;28;19930;-83
2023/08/05 11:34:01;;;;;;;3.03;1.75;;;18.90;99.90;;;;;;5066370;28;20032;-84
2023/08/05 11:36:28;;;;;;;4.40;1.92;;;19.00;99.90;;;;;;5063369;28;20298;-83
2023/08/05 11:38:57;;;;;;;3.17;1.83;;;19.00;99.90;;;;;;5062415;28;20035;-84
2023/08/05 11:41:24;;;;;;;4.43;2.10;;;19.10;99.90;;;;;;5026535;28;20681;-83
2023/08/05 11:43:50;;;;;;;6.30;2.35;;;19.10;99.90;;;;;;5019829;28;20021;-85
2023/08/05 11:46:27;;;;;;;3.47;1.58;;;19.10;99.90;;;;;;5020929;28;20022;-83
2023/08/05 11:49:06;;;;;;;5.10;2.45;;;19.10;99.90;;;;;;5021539;28;20069;-83
2023/08/05 11:51:52;;;;;;;4.05;1.70;;;19.20;99.90;;;;;;5021479;28;20032;-84
2023/08/05 11:54:34;;;;;;;10.63;2.45;;;19.20;99.90;;;;;;5024818;28;20033;-84
2023/08/05 11:57:00;;;;;;;5.93;2.35;;;19.20;99.90;;;;;;5028609;28;20032;-85
2023/08/05 11:59:46;;;;;;;4.40;2.22;;;19.30;99.90;;;;;;5029136;28;20060;-84
2023/08/05 12:02:14;;;;;;;5.47;2.35;;;19.30;99.90;;;;;;5023602;28;20028;-85
2023/08/05 12:04:45;;;;;;;4.88;1.88;;;19.30;99.90;;;;;;5028339;28;20040;-84
2023/08/05 12:07:16;;;;;;;4.70;2.25;;;19.40;99.90;;;;;;5029627;28;20017;-84
2023/08/05 12:09:42;;;;;;;3.72;2.10;;;19.40;99.90;;;;;;5025638;28;20120;-84
2023/08/05 12:12:18;;;;;;;11.93;2.08;;;19.50;99.90;;;;;;5025911;28;20018;-84
2023/08/05 12:14:44;;;;;;;5.90;2.42;;;19.50;99.90;;;;;;5029315;28;20044;-84
2023/08/05 12:17:10;;;;;;;6.53;2.40;;;19.50;99.90;;;;;;5029065;28;20025;-83
2023/08/05 12:19:39;;;;;;;4.75;2.33;;;19.40;99.90;;;;;;5014673;28;20026;-84
2023/08/05 12:22:04;;;;;;;6.72;2.15;;;19.50;99.90;;;;;;5025869;28;20528;-83
2023/08/05 12:24:30;;;;;;;3.33;2.17;;;19.40;99.90;;;;;;5026366;28;20116;-84
2023/08/05 12:26:55;;;;;;;2.85;1.70;;;19.50;99.90;;;;;;5020266;28;20481;-83
2023/08/05 12:29:21;;;;;;;5.97;2.13;;;19.50;99.90;;;;;;5025265;28;20394;-84
2023/08/05 12:31:47;;;;;;;7.10;2.38;;;19.50;99.90;;;;;;5026148;28;20089;-83
2023/08/05 12:34:17;;;;;;;3.90;1.90;;;19.60;99.90;;;;;;5029193;28;20029;-83
2023/08/05 12:36:44;;;;;;;4.70;2.08;;;19.60;99.90;;;;;;5029087;28;20040;-83
2023/08/05 12:39:10;;;;;;;3.42;2.05;;;19.60;99.90;;;;;;5031619;28;20515;-85
2023/08/05 12:41:35;;;;;;;2.67;1.52;;;19.60;99.90;;;;;;5070575;28;20040;-85
2023/08/05 12:44:01;;;;;;;3.55;1.80;;;19.60;99.90;;;;;;5068728;28;20070;-83
2023/08/05 12:46:27;;;;;;;4.93;2.08;;;19.60;99.90;;;;;;5065113;28;20020;-82